createdAt,value
2023-02-16T00:02:07.275Z,59.30
2023-02-16T00:04:38.174Z,58.40
2023-02-16T00:07:09.711Z,58.30
2023-02-16T00:09:41.086Z,59.50
2023-02-16T00:12:40.819Z,59.00
2023-02-16T00:15:29.071Z,56.80
2023-02-16T00:18:04.818Z,58.40
2023-02-16T00:20:37.907Z,58.00
2023-02-16T00:23:09.735Z,58.40
2023-02-16T00:25:41.900Z,58.20
2023-02-16T00:28:24.642Z,56.30
2023-02-16T00:30:55.717Z,57.40
2023-02-16T00:33:27.327Z,56.50
2023-02-16T00:35:58.286Z,55.60
2023-02-16T00:38:33.099Z,56.00
2023-02-16T00:41:04.940Z,55.60
2023-02-16T00:43:38.749Z,54.60
2023-02-16T00:46:12.546Z,53.90
2023-02-16T00:48:45.281Z,53.50
2023-02-16T00:51:25.592Z,52.80
2023-02-16T00:53:57.890Z,51.90
2023-02-16T00:56:28.987Z,52.60
2023-02-16T00:59:04.332Z,51.20
2023-02-16T01:01:39.570Z,52.50
2023-02-16T01:04:17.089Z,50.30
2023-02-16T01:07:06.727Z,49.20
2023-02-16T01:09:56.269Z,48.60
2023-02-16T01:12:27.620Z,50.60
2023-02-16T01:14:59.543Z,48.60
2023-02-16T01:17:31.369Z,48.40
2023-02-16T01:20:03.210Z,48.90
2023-02-16T01:22:36.110Z,49.10
2023-02-16T01:25:10.610Z,48.80
2023-02-16T01:27:42.317Z,46.80
2023-02-16T01:30:22.192Z,46.30
2023-02-16T01:32:57.367Z,47.30
2023-02-16T01:35:34.365Z,46.70
2023-02-16T01:38:07.464Z,48.10
2023-02-16T01:40:41.549Z,47.90
2023-02-16T01:43:38.328Z,46.80
2023-02-16T01:46:22.361Z,46.70
2023-02-16T01:48:53.956Z,46.10
2023-02-16T01:51:32.253Z,46.10
2023-02-16T01:54:25.313Z,46.50
2023-02-16T01:57:05.381Z,47.00
2023-02-16T01:59:50.516Z,46.10
2023-02-16T02:02:31.965Z,45.90
2023-02-16T02:05:39.464Z,46.60
2023-02-16T02:08:11.830Z,46.10
2023-02-16T02:10:53.856Z,45.90
2023-02-16T02:14:04.578Z,46.40
2023-02-16T02:16:37.049Z,46.20
2023-02-16T02:19:09.795Z,46.70
2023-02-16T02:22:24.047Z,46.10
2023-02-16T02:25:09.557Z,47.20
2023-02-16T02:27:57.693Z,47.60
2023-02-16T02:30:47.645Z,47.60
2023-02-16T02:33:32.118Z,47.30
2023-02-16T02:36:15.692Z,47.60
2023-02-16T02:38:59.286Z,46.30
2023-02-16T02:42:17.964Z,46.60
2023-02-16T02:44:55.062Z,46.60
2023-02-16T02:47:26.816Z,46.60
2023-02-16T02:49:58.495Z,46.30
2023-02-16T02:52:29.945Z,45.80
2023-02-16T02:55:19.663Z,44.40
2023-02-16T02:58:11.281Z,44.40
2023-02-16T03:00:50.736Z,46.10
2023-02-16T03:03:25.076Z,46.70
2023-02-16T03:06:11.357Z,47.80
2023-02-16T03:08:47.414Z,46.90
2023-02-16T03:11:48.110Z,46.00
2023-02-16T03:14:28.247Z,46.90
2023-02-16T03:17:21.572Z,45.60
2023-02-16T03:20:13.824Z,47.90
2023-02-16T03:23:04.580Z,47.00
2023-02-16T03:25:58.826Z,47.10
2023-02-16T03:28:53.935Z,46.80
2023-02-16T03:31:31.022Z,46.50
2023-02-16T03:34:03.507Z,46.20
2023-02-16T03:36:40.293Z,45.70
2023-02-16T03:39:14.282Z,46.00
2023-02-16T03:41:55.476Z,45.80
2023-02-16T03:44:30.086Z,44.70
2023-02-16T03:47:00.744Z,42.90
2023-02-16T03:49:31.453Z,44.90
2023-02-16T03:52:01.649Z,44.30
2023-02-16T03:54:31.880Z,43.90
2023-02-16T03:57:03.409Z,44.00
2023-02-16T03:59:35.416Z,44.60
2023-02-16T04:02:06.069Z,44.00
2023-02-16T04:04:39.157Z,43.60
2023-02-16T04:07:09.773Z,44.00
2023-02-16T04:09:40.227Z,44.40
2023-02-16T04:12:31.760Z,44.00
2023-02-16T04:15:02.625Z,44.00
2023-02-16T04:17:33.308Z,44.00
2023-02-16T04:20:04.324Z,44.20
2023-02-16T04:22:35.050Z,42.90
2023-02-16T04:25:06.744Z,43.80
2023-02-16T04:27:37.803Z,44.70
2023-02-16T04:30:10.562Z,43.90
2023-02-16T04:32:41.669Z,43.90
2023-02-16T04:35:12.830Z,44.30
2023-02-16T04:37:43.687Z,44.50
2023-02-16T04:40:15.753Z,44.60
2023-02-16T04:42:47.392Z,44.30
2023-02-16T04:45:20.177Z,45.00
2023-02-16T04:47:51.436Z,44.80
2023-02-16T04:50:22.214Z,45.20
2023-02-16T04:52:53.021Z,45.00
2023-02-16T04:55:24.112Z,44.80
2023-02-16T04:57:54.978Z,43.50
2023-02-16T05:00:27.005Z,44.30
2023-02-16T05:02:58.082Z,44.20
2023-02-16T05:05:29.476Z,44.10
2023-02-16T05:08:01.331Z,45.20
2023-02-16T05:10:33.193Z,44.50
2023-02-16T05:13:21.815Z,45.50
2023-02-16T05:15:54.229Z,45.00
2023-02-16T05:18:25.396Z,44.80
2023-02-16T05:21:14.997Z,44.90
2023-02-16T05:23:46.469Z,44.90
2023-02-16T05:26:16.709Z,44.40
2023-02-16T05:28:47.430Z,44.90
2023-02-16T05:31:19.009Z,45.30
2023-02-16T05:33:49.360Z,44.60
2023-02-16T05:36:19.965Z,45.00
2023-02-16T05:38:50.548Z,43.30
2023-02-16T05:41:27.030Z,44.80
2023-02-16T05:44:00.384Z,43.20
2023-02-16T05:46:34.712Z,43.60
2023-02-16T05:49:06.189Z,44.20
2023-02-16T05:51:37.793Z,44.50
2023-02-16T05:54:09.250Z,44.80
2023-02-16T05:56:39.767Z,44.80
2023-02-16T05:59:10.038Z,45.00
2023-02-16T06:01:42.531Z,45.30
2023-02-16T06:04:14.340Z,45.50
2023-02-16T06:06:46.084Z,45.60
2023-02-16T06:09:16.785Z,45.70
2023-02-16T06:11:47.511Z,45.80
2023-02-16T06:14:20.709Z,45.90
2023-02-16T06:16:55.595Z,45.60
2023-02-16T06:19:26.602Z,46.20
2023-02-16T06:21:57.635Z,45.10
2023-02-16T06:24:28.832Z,44.60
2023-02-16T06:26:59.166Z,46.30
2023-02-16T06:29:29.940Z,43.40
2023-02-16T06:32:00.623Z,44.80
2023-02-16T06:34:31.362Z,43.60
2023-02-16T06:37:01.833Z,44.20
2023-02-16T06:39:32.554Z,44.70
2023-02-16T06:42:03.071Z,45.40
2023-02-16T06:44:33.503Z,46.70
2023-02-16T06:47:03.752Z,45.50
2023-02-16T06:49:34.401Z,45.00
2023-02-16T06:52:05.342Z,46.10
2023-02-16T06:54:35.603Z,45.80
2023-02-16T06:57:05.886Z,46.00
2023-02-16T06:59:36.585Z,45.90
2023-02-16T07:02:07.407Z,45.40
2023-02-16T07:04:37.636Z,46.40
2023-02-16T07:07:07.865Z,45.50
2023-02-16T07:09:41.729Z,45.90
2023-02-16T07:12:11.968Z,45.50
2023-02-16T07:14:44.078Z,45.40
2023-02-16T07:17:14.982Z,44.70
2023-02-16T07:19:45.177Z,45.20
2023-02-16T07:22:15.559Z,45.30
2023-02-16T07:24:46.433Z,46.40
2023-02-16T07:27:17.171Z,44.90
2023-02-16T07:29:49.037Z,45.50
2023-02-16T07:32:19.357Z,45.10
2023-02-16T07:34:49.988Z,45.20
2023-02-16T07:37:21.221Z,46.30
2023-02-16T07:39:51.442Z,45.90
2023-02-16T07:42:22.770Z,46.60
2023-02-16T07:44:53.415Z,45.90
2023-02-16T07:47:24.149Z,46.40
2023-02-16T07:49:54.893Z,46.50
2023-02-16T07:52:27.952Z,47.40
2023-02-16T07:54:58.628Z,46.80
2023-02-16T07:57:30.045Z,46.60
2023-02-16T08:00:01.080Z,46.40
2023-02-16T08:02:31.448Z,45.80
2023-02-16T08:05:01.867Z,47.10
2023-02-16T08:07:32.259Z,47.10
2023-02-16T08:10:03.319Z,47.50
2023-02-16T08:12:33.894Z,48.60
2023-02-16T08:15:05.159Z,48.80
2023-02-16T08:17:36.807Z,48.60
2023-02-16T08:20:11.593Z,48.00
2023-02-16T08:22:41.800Z,48.40
2023-02-16T08:25:13.729Z,48.60
2023-02-16T08:27:44.977Z,48.80
2023-02-16T08:30:16.452Z,49.10
2023-02-16T08:32:48.365Z,49.00
2023-02-16T08:35:19.189Z,49.60
2023-02-16T08:37:49.837Z,49.70
2023-02-16T08:40:20.696Z,50.20
2023-02-16T08:42:51.413Z,50.00
2023-02-16T08:45:22.315Z,50.40
2023-02-16T08:47:55.951Z,50.80
2023-02-16T08:50:26.476Z,50.80
2023-02-16T08:52:57.218Z,51.10
2023-02-16T08:55:27.926Z,51.50
2023-02-16T08:57:58.588Z,51.60
2023-02-16T09:00:39.294Z,51.70
2023-02-16T09:03:10.118Z,51.90
2023-02-16T09:05:40.968Z,52.10
2023-02-16T09:08:12.261Z,52.70
2023-02-16T09:10:43.120Z,53.30
2023-02-16T09:13:18.114Z,53.90
2023-02-16T09:15:49.508Z,54.30
2023-02-16T09:18:19.918Z,54.60
2023-02-16T09:20:50.218Z,55.40
2023-02-16T09:23:22.223Z,56.00
2023-02-16T09:25:52.689Z,57.00
2023-02-16T09:28:23.449Z,57.20
2023-02-16T09:30:55.890Z,57.90
2023-02-16T09:33:27.106Z,59.10
2023-02-16T09:35:57.368Z,59.50
2023-02-16T09:38:35.540Z,59.10
2023-02-16T09:41:29.201Z,59.60
2023-02-16T09:44:25.914Z,59.80
2023-02-16T09:47:00.315Z,60.70
2023-02-16T09:49:59.591Z,61.60
2023-02-16T09:52:42.103Z,63.00
2023-02-16T09:55:20.636Z,64.00
2023-02-16T09:58:14.660Z,65.40
2023-02-16T10:00:59.720Z,65.60
2023-02-16T10:03:42.516Z,66.00
2023-02-16T10:06:19.373Z,66.30
2023-02-16T10:09:02.146Z,66.50
2023-02-16T10:11:53.242Z,66.90
2023-02-16T10:14:44.747Z,67.00
2023-02-16T10:17:31.282Z,67.40
2023-02-16T10:20:16.772Z,67.80
2023-02-16T10:23:17.786Z,68.30
2023-02-16T10:26:00.635Z,68.30
2023-02-16T10:28:56.585Z,68.80
2023-02-16T10:31:50.604Z,68.00
2023-02-16T10:34:36.350Z,68.20
2023-02-16T10:37:18.797Z,68.80
2023-02-16T10:40:01.951Z,68.40
2023-02-16T10:42:43.564Z,68.80
2023-02-16T10:45:19.556Z,68.50
2023-02-16T10:47:50.196Z,68.50
2023-02-16T10:50:35.879Z,68.70
2023-02-16T10:53:18.981Z,69.60
2023-02-16T10:55:49.914Z,69.10
2023-02-16T10:58:24.839Z,68.80
2023-02-16T11:01:00.837Z,70.20
2023-02-16T11:03:37.561Z,69.30
2023-02-16T11:06:28.758Z,69.10
2023-02-16T11:09:02.634Z,68.70
2023-02-16T11:11:44.677Z,69.00
2023-02-16T11:14:33.696Z,69.10
2023-02-16T11:17:19.330Z,69.30
2023-02-16T11:20:05.795Z,68.70
2023-02-16T11:22:41.908Z,68.90
2023-02-16T11:25:30.284Z,68.70
2023-02-16T11:28:03.701Z,68.80
2023-02-16T11:30:34.292Z,68.80
2023-02-16T11:33:23.186Z,68.80
2023-02-16T11:35:53.763Z,68.80
2023-02-16T11:38:41.668Z,68.40
2023-02-16T11:41:13.242Z,68.40
2023-02-16T11:43:45.170Z,68.50
2023-02-16T11:46:23.453Z,68.50
2023-02-16T11:48:54.239Z,68.30
2023-02-16T11:51:36.552Z,68.20
2023-02-16T11:54:10.348Z,68.40
2023-02-16T11:56:41.660Z,68.40
2023-02-16T11:59:22.790Z,68.00
2023-02-16T12:02:25.076Z,68.30
2023-02-16T12:05:25.772Z,68.50
2023-02-16T12:09:00.224Z,68.60
2023-02-16T12:11:57.896Z,68.90
2023-02-16T12:14:29.053Z,69.40
2023-02-16T12:17:29.655Z,69.60
2023-02-16T12:20:38.209Z,70.20
2023-02-16T12:23:40.886Z,69.90
2023-02-16T12:26:29.384Z,71.90
2023-02-16T12:29:24.072Z,68.80
2023-02-16T12:32:15.641Z,69.90
2023-02-16T12:35:22.421Z,70.40
2023-02-16T12:37:55.780Z,69.80
2023-02-16T12:40:32.095Z,69.50
2023-02-16T12:43:25.376Z,69.70
2023-02-16T12:45:58.918Z,70.10
2023-02-16T12:48:47.051Z,69.70
2023-02-16T12:51:23.582Z,70.10
2023-02-16T12:54:31.185Z,70.20
2023-02-16T12:57:18.347Z,70.30
2023-02-16T12:59:51.834Z,70.90
2023-02-16T13:02:33.509Z,71.10
2023-02-16T13:05:12.175Z,72.00
2023-02-16T13:07:52.374Z,71.70
2023-02-16T13:11:01.170Z,72.00
2023-02-16T13:13:37.038Z,72.50
2023-02-16T13:16:17.461Z,72.30
2023-02-16T13:18:59.277Z,72.80
2023-02-16T13:21:51.290Z,73.10
2023-02-16T13:24:31.347Z,73.20
2023-02-16T13:27:04.519Z,73.30
2023-02-16T13:30:02.104Z,73.20
2023-02-16T13:32:44.693Z,73.30
2023-02-16T13:35:50.252Z,74.30
2023-02-16T13:38:39.066Z,74.50
2023-02-16T13:41:14.871Z,74.00
2023-02-16T13:44:19.008Z,74.20
2023-02-16T13:46:54.691Z,74.50
2023-02-16T13:49:35.492Z,75.30
2023-02-16T13:52:06.954Z,75.70
2023-02-16T13:54:43.700Z,75.20
2023-02-16T13:57:37.006Z,75.40
2023-02-16T14:00:08.059Z,75.30
2023-02-16T14:03:03.180Z,75.50
2023-02-16T14:05:48.804Z,75.80
2023-02-16T14:08:30.309Z,76.10
2023-02-16T14:11:05.508Z,76.60
2023-02-16T14:13:43.184Z,76.60
2023-02-16T14:16:27.557Z,76.50
2023-02-16T14:18:58.261Z,76.40
2023-02-16T14:21:35.073Z,76.90
2023-02-16T14:24:29.197Z,77.10
2023-02-16T14:27:06.299Z,77.10
2023-02-16T14:29:58.089Z,76.80
2023-02-16T14:32:40.309Z,76.90
2023-02-16T14:35:29.375Z,77.00
2023-02-16T14:38:22.009Z,77.40
2023-02-16T14:41:01.171Z,77.50
2023-02-16T14:43:38.686Z,77.40
2023-02-16T14:46:30.941Z,77.70
2023-02-16T14:49:19.796Z,77.90
2023-02-16T14:52:14.546Z,77.90
2023-02-16T14:54:48.027Z,78.40
2023-02-16T14:57:39.246Z,78.50
2023-02-16T15:00:16.636Z,78.60
2023-02-16T15:02:59.992Z,78.70
2023-02-16T15:05:34.734Z,78.70
2023-02-16T15:08:11.773Z,78.30
2023-02-16T15:10:42.890Z,78.80
2023-02-16T15:13:15.159Z,78.60
2023-02-16T15:15:52.669Z,79.00
2023-02-16T15:18:27.750Z,79.20
2023-02-16T15:21:00.208Z,79.50
2023-02-16T15:23:33.160Z,79.00
2023-02-16T15:26:16.652Z,78.80
2023-02-16T15:29:16.708Z,79.30
2023-02-16T15:31:47.270Z,79.40
2023-02-16T15:34:31.600Z,79.00
2023-02-16T15:37:04.106Z,79.10
2023-02-16T15:39:49.906Z,79.60
2023-02-16T15:42:32.503Z,79.30
2023-02-16T15:45:02.970Z,79.40
2023-02-16T15:47:33.953Z,79.80
2023-02-16T15:50:15.992Z,79.90
2023-02-16T15:52:46.329Z,80.30
2023-02-16T15:55:16.679Z,80.50
2023-02-16T15:57:47.956Z,80.10
2023-02-16T16:00:25.122Z,81.10
2023-02-16T16:03:03.762Z,81.10
2023-02-16T16:05:41.884Z,81.40
2023-02-16T16:08:19.250Z,81.30
2023-02-16T16:10:50.781Z,81.80
2023-02-16T16:13:41.011Z,82.00
2023-02-16T16:16:12.261Z,82.00
2023-02-16T16:18:48.478Z,82.10
2023-02-16T16:21:21.709Z,81.90
2023-02-16T16:24:11.201Z,82.00
2023-02-16T16:27:14.641Z,81.90
2023-02-16T16:29:47.769Z,81.90
2023-02-16T16:32:21.316Z,81.80
2023-02-16T16:34:52.098Z,82.10
2023-02-16T16:37:40.322Z,81.90
2023-02-16T16:40:11.504Z,81.70
2023-02-16T16:42:57.207Z,81.80
2023-02-16T16:45:46.772Z,82.30
2023-02-16T16:48:39.351Z,82.60
2023-02-16T16:51:17.642Z,82.30
2023-02-16T16:53:54.955Z,82.80
2023-02-16T16:56:26.968Z,82.80
2023-02-16T16:59:00.133Z,82.90
2023-02-16T17:01:32.572Z,83.40
2023-02-16T17:04:03.843Z,83.90
2023-02-16T17:06:34.601Z,83.30
2023-02-16T17:09:07.344Z,83.90
2023-02-16T17:11:40.248Z,83.50
2023-02-16T17:14:21.726Z,83.40
2023-02-16T17:16:55.635Z,83.60
2023-02-16T17:19:26.478Z,83.70
2023-02-16T17:21:56.772Z,83.90
2023-02-16T17:24:27.708Z,84.20
2023-02-16T17:26:58.343Z,83.90
2023-02-16T17:29:29.100Z,84.20
2023-02-16T17:31:59.962Z,83.60
2023-02-16T17:34:33.639Z,83.50
2023-02-16T17:37:11.542Z,84.00
2023-02-16T17:39:41.838Z,83.80
2023-02-16T17:42:15.519Z,84.20
2023-02-16T17:44:45.966Z,84.20
2023-02-16T17:47:19.962Z,84.20
2023-02-16T17:49:50.948Z,84.10
2023-02-16T17:52:21.771Z,84.50
2023-02-16T17:54:52.402Z,84.70
2023-02-16T17:57:22.639Z,84.90
2023-02-16T17:59:53.247Z,84.80
2023-02-16T18:02:23.509Z,85.00
2023-02-16T18:04:53.873Z,85.10
2023-02-16T18:07:24.520Z,86.00
2023-02-16T18:09:54.873Z,85.20
2023-02-16T18:12:26.809Z,85.20
2023-02-16T18:14:59.040Z,85.50
2023-02-16T18:17:29.302Z,85.80
2023-02-16T18:19:59.987Z,85.90
2023-02-16T18:22:30.280Z,85.70
2023-02-16T18:25:00.531Z,86.20
2023-02-16T18:27:30.843Z,86.40
2023-02-16T18:30:01.597Z,86.50
2023-02-16T18:32:31.852Z,86.50
2023-02-16T18:35:02.516Z,86.30
2023-02-16T18:37:33.228Z,86.40
2023-02-16T18:40:03.668Z,86.20
2023-02-16T18:42:35.478Z,86.50
2023-02-16T18:45:07.719Z,86.70
2023-02-16T18:47:38.663Z,86.20
2023-02-16T18:50:10.761Z,86.40
2023-02-16T18:52:44.235Z,86.30
2023-02-16T18:55:16.910Z,86.10
2023-02-16T18:57:47.573Z,86.20
2023-02-16T19:00:18.797Z,86.60
2023-02-16T19:02:49.287Z,86.70
2023-02-16T19:05:20.083Z,87.30
2023-02-16T19:07:50.759Z,86.70
2023-02-16T19:10:21.303Z,86.30
2023-02-16T19:12:51.577Z,86.80
2023-02-16T19:15:21.973Z,86.90
2023-02-16T19:17:52.806Z,86.80
2023-02-16T19:20:23.101Z,86.80
2023-02-16T19:22:53.975Z,87.30
2023-02-16T19:25:25.482Z,87.40
2023-02-16T19:27:55.717Z,87.10
2023-02-16T19:30:26.591Z,87.20
2023-02-16T19:32:57.714Z,88.20
2023-02-16T19:35:28.037Z,88.20
2023-02-16T19:37:58.573Z,88.10
2023-02-16T19:40:29.324Z,87.90
2023-02-16T19:43:00.020Z,88.20
2023-02-16T19:45:30.385Z,87.90
2023-02-16T19:48:00.720Z,88.00
2023-02-16T19:50:31.030Z,88.20
2023-02-16T19:53:01.360Z,88.20
2023-02-16T19:55:31.632Z,87.90
2023-02-16T19:58:01.903Z,87.20
2023-02-16T20:00:32.382Z,87.30
2023-02-16T20:03:02.633Z,87.30
2023-02-16T20:05:33.104Z,87.10
2023-02-16T20:08:03.454Z,87.40
2023-02-16T20:10:35.038Z,87.20
2023-02-16T20:13:06.742Z,87.50
2023-02-16T20:15:37.476Z,87.10
2023-02-16T20:18:09.349Z,87.00
2023-02-16T20:20:39.595Z,86.70
2023-02-16T20:23:10.865Z,87.00
2023-02-16T20:25:42.630Z,87.30
2023-02-16T20:28:13.017Z,87.40
2023-02-16T20:30:45.433Z,87.30
2023-02-16T20:33:16.961Z,87.00
2023-02-16T20:35:48.408Z,87.40
2023-02-16T20:38:31.105Z,87.50
2023-02-16T20:41:01.828Z,86.80
2023-02-16T20:43:32.269Z,87.00
2023-02-16T20:46:04.882Z,86.90
2023-02-16T20:48:35.856Z,86.90
2023-02-16T20:51:08.402Z,86.90
2023-02-16T20:53:39.910Z,87.00
2023-02-16T20:56:17.953Z,86.80
2023-02-16T20:58:52.955Z,86.80
2023-02-16T21:01:29.953Z,86.10
2023-02-16T21:04:02.487Z,86.30
2023-02-16T21:06:32.921Z,86.10
2023-02-16T21:09:03.925Z,86.60
2023-02-16T21:11:34.754Z,85.90
2023-02-16T21:14:06.747Z,85.50
2023-02-16T21:16:38.450Z,85.30
2023-02-16T21:19:22.207Z,85.10
2023-02-16T21:21:54.396Z,84.80
2023-02-16T21:24:25.661Z,84.90
2023-02-16T21:26:56.286Z,83.90
2023-02-16T21:29:26.572Z,83.60
2023-02-16T21:31:56.879Z,83.10
2023-02-16T21:34:27.428Z,82.10
2023-02-16T21:36:58.043Z,81.00
2023-02-16T21:39:46.261Z,80.80
2023-02-16T21:42:16.970Z,80.00
2023-02-16T21:44:53.438Z,80.00
2023-02-16T21:47:41.516Z,79.60
2023-02-16T21:50:12.129Z,78.80
2023-02-16T21:52:42.790Z,77.50
2023-02-16T21:55:32.006Z,77.00
2023-02-16T21:58:02.717Z,76.90
2023-02-16T22:00:33.538Z,76.90
2023-02-16T22:03:04.851Z,75.90
2023-02-16T22:05:37.784Z,75.80
2023-02-16T22:08:09.131Z,74.90
2023-02-16T22:10:40.979Z,73.30
2023-02-16T22:13:11.746Z,73.10
2023-02-16T22:15:43.128Z,72.40
2023-02-16T22:18:14.760Z,72.80
2023-02-16T22:20:45.600Z,71.10
2023-02-16T22:23:16.307Z,71.00
2023-02-16T22:25:47.067Z,70.70
2023-02-16T22:28:18.086Z,69.60
2023-02-16T22:30:48.839Z,68.90
2023-02-16T22:33:19.580Z,68.40
2023-02-16T22:35:50.518Z,68.50
2023-02-16T22:38:29.719Z,67.90
2023-02-16T22:41:00.643Z,66.90
2023-02-16T22:43:32.311Z,65.60
2023-02-16T22:46:07.558Z,65.30
2023-02-16T22:48:39.064Z,64.80
2023-02-16T22:51:11.909Z,65.20
2023-02-16T22:53:43.077Z,65.20
2023-02-16T22:56:17.885Z,64.60
2023-02-16T22:58:50.515Z,64.00
2023-02-16T23:01:23.532Z,62.50
2023-02-16T23:03:56.235Z,61.50
2023-02-16T23:06:31.707Z,61.40
2023-02-16T23:09:12.096Z,61.20
2023-02-16T23:11:42.391Z,60.70
2023-02-16T23:14:19.277Z,59.50
2023-02-16T23:16:56.945Z,59.70
2023-02-16T23:19:30.310Z,59.80
2023-02-16T23:22:01.334Z,59.20
2023-02-16T23:24:32.145Z,59.00
2023-02-16T23:27:02.957Z,58.20
2023-02-16T23:29:33.357Z,57.90
2023-02-16T23:32:04.019Z,57.60
2023-02-16T23:34:34.662Z,57.00
2023-02-16T23:37:05.008Z,55.30
2023-02-16T23:39:35.756Z,56.10
2023-02-16T23:42:06.054Z,56.50
2023-02-16T23:44:36.407Z,56.70
2023-02-16T23:47:06.849Z,57.30
2023-02-16T23:49:37.098Z,55.60
2023-02-16T23:52:07.500Z,55.40
2023-02-16T23:54:37.701Z,54.30
2023-02-16T23:57:12.395Z,54.70
2023-02-16T23:59:43.344Z,55.30
